sensor_id;sensor_type;location;lat;lon;timestamp;P1;durP1;ratioP1;P2;durP2;ratioP2
9418;SDS011;4748;50.802;7.132;2023-04-24T00:00:45;0.10;;;0.10;;
9418;SDS011;4748;50.802;7.132;2023-04-24T00:03:11;0.00;;;0.00;;
9418;SDS011;4748;50.802;7.132;2023-04-24T00:05:38;0.00;;;0.00;;
9418;SDS011;4748;50.802;7.132;2023-04-24T00:08:05;0.10;;;0.10;;
9418;SDS011;4748;50.802;7.132;2023-04-24T00:10:31;0.00;;;0.00;;
9418;SDS011;4748;50.802;7.132;2023-04-24T00:12:56;0.63;;;0.10;;
9418;SDS011;4748;50.802;7.132;2023-04-24T00:15:21;0.00;;;0.00;;
9418;SDS011;4748;50.802;7.132;2023-04-24T00:17:47;0.03;;;0.03;;
9418;SDS011;4748;50.802;7.132;2023-04-24T00:20:12;0.00;;;0.00;;
9418;SDS011;4748;50.802;7.132;2023-04-24T00:22:39;0.03;;;0.03;;
9418;SDS011;4748;50.802;7.132;2023-04-24T00:25:05;0.07;;;0.03;;
9418;SDS011;4748;50.802;7.132;2023-04-24T00:27:30;0.20;;;0.10;;
9418;SDS011;4748;50.802;7.132;2023-04-24T00:29:57;0.57;;;0.13;;
9418;SDS011;4748;50.802;7.132;2023-04-24T00:32:22;0.10;;;0.10;;
9418;SDS011;4748;50.802;7.132;2023-04-24T00:34:47;0.10;;;0.10;;
9418;SDS011;4748;50.802;7.132;2023-04-24T00:37:13;0.10;;;0.10;;
9418;SDS011;4748;50.802;7.132;2023-04-24T00:39:38;0.03;;;0.03;;
9418;SDS011;4748;50.802;7.132;2023-04-24T00:42:04;0.10;;;0.10;;
9418;SDS011;4748;50.802;7.132;2023-04-24T00:44:31;0.10;;;0.10;;
9418;SDS011;4748;50.802;7.132;2023-04-24T00:46:57;0.10;;;0.10;;
9418;SDS011;4748;50.802;7.132;2023-04-24T00:49:24;0.57;;;0.10;;
9418;SDS011;4748;50.802;7.132;2023-04-24T00:51:49;0.00;;;0.00;;
9418;SDS011;4748;50.802;7.132;2023-04-24T00:54:16;0.10;;;0.10;;
9418;SDS011;4748;50.802;7.132;2023-04-24T00:56:42;0.10;;;0.10;;
9418;SDS011;4748;50.802;7.132;2023-04-24T00:59:08;0.10;;;0.10;;
9418;SDS011;4748;50.802;7.132;2023-04-24T01:01:34;0.20;;;0.20;;
9418;SDS011;4748;50.802;7.132;2023-04-24T01:04:00;0.10;;;0.10;;
9418;SDS011;4748;50.802;7.132;2023-04-24T01:06:29;0.27;;;0.03;;
9418;SDS011;4748;50.802;7.132;2023-04-24T01:08:58;0.03;;;0.03;;
9418;SDS011;4748;50.802;7.132;2023-04-24T01:11:25;0.00;;;0.00;;
9418;SDS011;4748;50.802;7.132;2023-04-24T01:13:51;0.10;;;0.10;;
9418;SDS011;4748;50.802;7.132;2023-04-24T01:16:17;0.07;;;0.00;;
9418;SDS011;4748;50.802;7.132;2023-04-24T01:18:45;0.10;;;0.10;;
9418;SDS011;4748;50.802;7.132;2023-04-24T01:21:10;0.03;;;0.03;;
9418;SDS011;4748;50.802;7.132;2023-04-24T01:23:39;0.13;;;0.13;;
9418;SDS011;4748;50.802;7.132;2023-04-24T01:26:05;0.10;;;0.10;;
9418;SDS011;4748;50.802;7.132;2023-04-24T01:28:30;0.63;;;0.10;;
9418;SDS011;4748;50.802;7.132;2023-04-24T01:30:56;4.23;;;0.10;;
9418;SDS011;4748;50.802;7.132;2023-04-24T01:33:21;0.00;;;0.00;;
9418;SDS011;4748;50.802;7.132;2023-04-24T01:35:47;0.10;;;0.10;;
9418;SDS011;4748;50.802;7.132;2023-04-24T01:38:13;0.00;;;0.00;;
9418;SDS011;4748;50.802;7.132;2023-04-24T01:40:39;0.07;;;0.07;;
9418;SDS011;4748;50.802;7.132;2023-04-24T01:43:05;0.10;;;0.10;;
9418;SDS011;4748;50.802;7.132;2023-04-24T01:45:30;0.10;;;0.10;;
9418;SDS011;4748;50.802;7.132;2023-04-24T01:47:56;0.70;;;0.10;;
9418;SDS011;4748;50.802;7.132;2023-04-24T01:50:21;0.20;;;0.20;;
9418;SDS011;4748;50.802;7.132;2023-04-24T01:52:47;0.27;;;0.20;;
9418;SDS011;4748;50.802;7.132;2023-04-24T01:55:12;4.37;;;0.30;;
9418;SDS011;4748;50.802;7.132;2023-04-24T01:57:38;0.20;;;0.20;;
9418;SDS011;4748;50.802;7.132;2023-04-24T02:00:03;0.20;;;0.20;;
9418;SDS011;4748;50.802;7.132;2023-04-24T02:02:30;0.20;;;0.20;;
9418;SDS011;4748;50.802;7.132;2023-04-24T02:04:56;0.20;;;0.20;;
9418;SDS011;4748;50.802;7.132;2023-04-24T02:07:21;0.30;;;0.30;;
9418;SDS011;4748;50.802;7.132;2023-04-24T02:09:47;0.40;;;0.20;;
9418;SDS011;4748;50.802;7.132;2023-04-24T02:12:13;0.40;;;0.40;;
9418;SDS011;4748;50.802;7.132;2023-04-24T02:14:40;1.50;;;0.20;;
9418;SDS011;4748;50.802;7.132;2023-04-24T02:17:05;0.40;;;0.40;;
9418;SDS011;4748;50.802;7.132;2023-04-24T02:19:31;0.40;;;0.40;;
9418;SDS011;4748;50.802;7.132;2023-04-24T02:21:56;0.27;;;0.20;;
9418;SDS011;4748;50.802;7.132;2023-04-24T02:24:22;0.30;;;0.30;;
9418;SDS011;4748;50.802;7.132;2023-04-24T02:26:47;0.60;;;0.60;;
9418;SDS011;4748;50.802;7.132;2023-04-24T02:29:13;0.30;;;0.30;;
9418;SDS011;4748;50.802;7.132;2023-04-24T02:31:38;0.20;;;0.20;;
9418;SDS011;4748;50.802;7.132;2023-04-24T02:34:03;2.33;;;0.40;;
9418;SDS011;4748;50.802;7.132;2023-04-24T02:36:28;0.33;;;0.33;;
9418;SDS011;4748;50.802;7.132;2023-04-24T02:38:55;0.70;;;0.70;;
9418;SDS011;4748;50.802;7.132;2023-04-24T02:41:20;0.70;;;0.67;;
9418;SDS011;4748;50.802;7.132;2023-04-24T02:43:46;0.50;;;0.50;;
9418;SDS011;4748;50.802;7.132;2023-04-24T02:46:11;1.93;;;0.50;;
9418;SDS011;4748;50.802;7.132;2023-04-24T02:48:36;2.27;;;1.00;;
9418;SDS011;4748;50.802;7.132;2023-04-24T02:51:02;1.00;;;0.77;;
9418;SDS011;4748;50.802;7.132;2023-04-24T02:53:27;0.77;;;0.77;;
9418;SDS011;4748;50.802;7.132;2023-04-24T02:55:54;2.13;;;0.87;;
9418;SDS011;4748;50.802;7.132;2023-04-24T02:58:20;0.93;;;0.93;;
9418;SDS011;4748;50.802;7.132;2023-04-24T03:00:45;0.90;;;0.90;;
9418;SDS011;4748;50.802;7.132;2023-04-24T03:03:12;0.60;;;0.60;;
9418;SDS011;4748;50.802;7.132;2023-04-24T03:05:37;0.97;;;0.77;;
9418;SDS011;4748;50.802;7.132;2023-04-24T03:08:02;2.00;;;0.70;;
9418;SDS011;4748;50.802;7.132;2023-04-24T03:10:28;0.73;;;0.73;;
9418;SDS011;4748;50.802;7.132;2023-04-24T03:12:53;0.73;;;0.73;;
9418;SDS011;4748;50.802;7.132;2023-04-24T03:15:19;0.60;;;0.60;;
9418;SDS011;4748;50.802;7.132;2023-04-24T03:17:45;0.97;;;0.97;;
9418;SDS011;4748;50.802;7.132;2023-04-24T03:20:10;0.97;;;0.97;;
9418;SDS011;4748;50.802;7.132;2023-04-24T03:22:36;0.77;;;0.70;;
9418;SDS011;4748;50.802;7.132;2023-04-24T03:25:01;0.50;;;0.50;;
9418;SDS011;4748;50.802;7.132;2023-04-24T03:27:26;0.90;;;0.70;;
9418;SDS011;4748;50.802;7.132;2023-04-24T03:29:52;0.50;;;0.50;;
9418;SDS011;4748;50.802;7.132;2023-04-24T03:32:20;0.50;;;0.50;;
9418;SDS011;4748;50.802;7.132;2023-04-24T03:34:48;0.80;;;0.80;;
9418;SDS011;4748;50.802;7.132;2023-04-24T03:37:15;0.73;;;0.60;;
9418;SDS011;4748;50.802;7.132;2023-04-24T03:39:43;1.13;;;0.67;;
9418;SDS011;4748;50.802;7.132;2023-04-24T03:42:08;2.87;;;1.33;;
9418;SDS011;4748;50.802;7.132;2023-04-24T03:44:34;0.93;;;0.80;;
9418;SDS011;4748;50.802;7.132;2023-04-24T03:47:00;1.23;;;1.10;;
9418;SDS011;4748;50.802;7.132;2023-04-24T03:49:25;0.77;;;0.70;;
9418;SDS011;4748;50.802;7.132;2023-04-24T03:51:51;2.47;;;0.97;;
9418;SDS011;4748;50.802;7.132;2023-04-24T03:54:17;0.57;;;0.57;;
9418;SDS011;4748;50.802;7.132;2023-04-24T03:56:42;0.80;;;0.67;;
9418;SDS011;4748;50.802;7.132;2023-04-24T03:59:08;0.90;;;0.87;;
9418;SDS011;4748;50.802;7.132;2023-04-24T04:01:33;1.57;;;1.47;;
9418;SDS011;4748;50.802;7.132;2023-04-24T04:04:01;1.97;;;1.27;;
9418;SDS011;4748;50.802;7.132;2023-04-24T04:06:27;1.87;;;0.87;;
9418;SDS011;4748;50.802;7.132;2023-04-24T04:08:53;0.80;;;0.80;;
9418;SDS011;4748;50.802;7.132;2023-04-24T04:11:18;2.97;;;1.20;;
9418;SDS011;4748;50.802;7.132;2023-04-24T04:13:44;0.97;;;0.97;;
9418;SDS011;4748;50.802;7.132;2023-04-24T04:16:12;2.00;;;1.10;;
9418;SDS011;4748;50.802;7.132;2023-04-24T04:18:38;0.70;;;0.70;;
9418;SDS011;4748;50.802;7.132;2023-04-24T04:21:03;0.83;;;0.80;;
9418;SDS011;4748;50.802;7.132;2023-04-24T04:23:28;0.87;;;0.87;;
9418;SDS011;4748;50.802;7.132;2023-04-24T04:25:54;1.13;;;1.13;;
9418;SDS011;4748;50.802;7.132;2023-04-24T04:28:20;0.90;;;0.90;;
9418;SDS011;4748;50.802;7.132;2023-04-24T04:30:46;1.13;;;1.10;;
9418;SDS011;4748;50.802;7.132;2023-04-24T04:33:12;1.10;;;1.10;;
9418;SDS011;4748;50.802;7.132;2023-04-24T04:35:37;0.87;;;0.87;;
9418;SDS011;4748;50.802;7.132;2023-04-24T04:38:02;1.13;;;1.00;;
9418;SDS011;4748;50.802;7.132;2023-04-24T04:40:27;2.43;;;1.00;;
9418;SDS011;4748;50.802;7.132;2023-04-24T04:42:53;1.50;;;1.17;;
9418;SDS011;4748;50.802;7.132;2023-04-24T04:45:18;2.43;;;1.30;;
9418;SDS011;4748;50.802;7.132;2023-04-24T04:47:45;0.80;;;0.80;;
9418;SDS011;4748;50.802;7.132;2023-04-24T04:50:11;1.00;;;0.90;;
9418;SDS011;4748;50.802;7.132;2023-04-24T04:52:36;0.77;;;0.77;;
9418;SDS011;4748;50.802;7.132;2023-04-24T04:55:02;2.30;;;0.97;;
9418;SDS011;4748;50.802;7.132;2023-04-24T04:57:27;1.23;;;1.13;;
9418;SDS011;4748;50.802;7.132;2023-04-24T04:59:53;1.47;;;1.17;;
9418;SDS011;4748;50.802;7.132;2023-04-24T05:02:18;1.13;;;1.03;;
9418;SDS011;4748;50.802;7.132;2023-04-24T05:04:43;5.50;;;1.00;;
9418;SDS011;4748;50.802;7.132;2023-04-24T05:07:10;4.20;;;1.10;;
9418;SDS011;4748;50.802;7.132;2023-04-24T05:09:35;1.30;;;1.10;;
9418;SDS011;4748;50.802;7.132;2023-04-24T05:12:01;1.13;;;1.03;;
9418;SDS011;4748;50.802;7.132;2023-04-24T05:14:27;1.80;;;1.20;;
9418;SDS011;4748;50.802;7.132;2023-04-24T05:16:52;4.30;;;0.60;;
9418;SDS011;4748;50.802;7.132;2023-04-24T05:19:17;1.07;;;1.07;;
9418;SDS011;4748;50.802;7.132;2023-04-24T05:21:43;1.40;;;1.00;;
9418;SDS011;4748;50.802;7.132;2023-04-24T05:24:08;6.60;;;1.33;;
9418;SDS011;4748;50.802;7.132;2023-04-24T05:26:34;2.13;;;0.93;;
9418;SDS011;4748;50.802;7.132;2023-04-24T05:29:00;1.50;;;0.90;;
9418;SDS011;4748;50.802;7.132;2023-04-24T05:31:26;0.70;;;0.70;;
9418;SDS011;4748;50.802;7.132;2023-04-24T05:33:51;3.13;;;0.93;;
9418;SDS011;4748;50.802;7.132;2023-04-24T05:36:17;3.80;;;1.03;;
9418;SDS011;4748;50.802;7.132;2023-04-24T05:38:42;3.50;;;0.77;;
9418;SDS011;4748;50.802;7.132;2023-04-24T05:41:07;0.80;;;0.80;;
9418;SDS011;4748;50.802;7.132;2023-04-24T05:43:33;2.30;;;1.20;;
9418;SDS011;4748;50.802;7.132;2023-04-24T05:45:58;0.97;;;0.97;;
9418;SDS011;4748;50.802;7.132;2023-04-24T05:48:24;2.07;;;0.60;;
9418;SDS011;4748;50.802;7.132;2023-04-24T05:50:49;0.60;;;0.60;;
9418;SDS011;4748;50.802;7.132;2023-04-24T05:53:15;1.77;;;0.70;;
9418;SDS011;4748;50.802;7.132;2023-04-24T05:55:40;1.03;;;0.70;;
9418;SDS011;4748;50.802;7.132;2023-04-24T05:58:06;2.50;;;0.90;;
9418;SDS011;4748;50.802;7.132;2023-04-24T06:00:31;0.87;;;0.87;;
9418;SDS011;4748;50.802;7.132;2023-04-24T06:02:57;1.00;;;1.00;;
9418;SDS011;4748;50.802;7.132;2023-04-24T06:05:23;1.40;;;0.70;;
9418;SDS011;4748;50.802;7.132;2023-04-24T06:07:49;0.73;;;0.73;;
9418;SDS011;4748;50.802;7.132;2023-04-24T06:10:14;0.80;;;0.80;;
9418;SDS011;4748;50.802;7.132;2023-04-24T06:12:40;6.93;;;1.00;;
9418;SDS011;4748;50.802;7.132;2023-04-24T06:15:06;0.80;;;0.80;;
9418;SDS011;4748;50.802;7.132;2023-04-24T06:17:32;0.70;;;0.70;;
9418;SDS011;4748;50.802;7.132;2023-04-24T06:19:57;2.60;;;1.40;;
9418;SDS011;4748;50.802;7.132;2023-04-24T06:22:22;1.07;;;0.60;;
9418;SDS011;4748;50.802;7.132;2023-04-24T06:24:48;1.10;;;0.97;;
9418;SDS011;4748;50.802;7.132;2023-04-24T06:27:13;1.30;;;1.20;;
9418;SDS011;4748;50.802;7.132;2023-04-24T06:29:39;1.10;;;0.80;;
9418;SDS011;4748;50.802;7.132;2023-04-24T06:32:04;1.30;;;1.30;;
9418;SDS011;4748;50.802;7.132;2023-04-24T06:34:30;1.33;;;1.23;;
9418;SDS011;4748;50.802;7.132;2023-04-24T06:36:55;0.93;;;0.90;;
9418;SDS011;4748;50.802;7.132;2023-04-24T06:39:21;1.13;;;1.00;;
9418;SDS011;4748;50.802;7.132;2023-04-24T06:41:47;1.93;;;1.03;;
9418;SDS011;4748;50.802;7.132;2023-04-24T06:44:12;2.23;;;1.43;;
9418;SDS011;4748;50.802;7.132;2023-04-24T06:46:39;10.77;;;1.83;;
9418;SDS011;4748;50.802;7.132;2023-04-24T06:49:05;2.10;;;1.20;;
9418;SDS011;4748;50.802;7.132;2023-04-24T06:51:31;1.00;;;1.00;;
9418;SDS011;4748;50.802;7.132;2023-04-24T06:53:58;1.17;;;1.10;;
9418;SDS011;4748;50.802;7.132;2023-04-24T06:56:23;0.90;;;0.90;;
9418;SDS011;4748;50.802;7.132;2023-04-24T06:58:48;4.43;;;1.07;;
9418;SDS011;4748;50.802;7.132;2023-04-24T07:01:14;2.13;;;1.03;;
9418;SDS011;4748;50.802;7.132;2023-04-24T07:03:39;1.37;;;1.00;;
9418;SDS011;4748;50.802;7.132;2023-04-24T07:06:05;1.10;;;1.00;;
9418;SDS011;4748;50.802;7.132;2023-04-24T07:08:32;1.00;;;1.00;;
9418;SDS011;4748;50.802;7.132;2023-04-24T07:10:58;0.77;;;0.77;;
9418;SDS011;4748;50.802;7.132;2023-04-24T07:13:23;0.70;;;0.70;;
9418;SDS011;4748;50.802;7.132;2023-04-24T07:15:49;0.80;;;0.80;;
9418;SDS011;4748;50.802;7.132;2023-04-24T07:18:15;0.90;;;0.50;;
9418;SDS011;4748;50.802;7.132;2023-04-24T07:20:41;0.63;;;0.63;;
9418;SDS011;4748;50.802;7.132;2023-04-24T07:23:07;0.57;;;0.50;;
9418;SDS011;4748;50.802;7.132;2023-04-24T07:25:32;0.43;;;0.43;;
9418;SDS011;4748;50.802;7.132;2023-04-24T07:27:58;0.60;;;0.50;;
9418;SDS011;4748;50.802;7.132;2023-04-24T07:30:23;0.27;;;0.27;;
9418;SDS011;4748;50.802;7.132;2023-04-24T07:32:49;0.60;;;0.60;;
9418;SDS011;4748;50.802;7.132;2023-04-24T07:35:15;0.67;;;0.40;;
9418;SDS011;4748;50.802;7.132;2023-04-24T07:37:40;0.37;;;0.20;;
9418;SDS011;4748;50.802;7.132;2023-04-24T07:40:10;0.40;;;0.37;;
9418;SDS011;4748;50.802;7.132;2023-04-24T07:42:39;0.53;;;0.30;;
9418;SDS011;4748;50.802;7.132;2023-04-24T07:45:04;0.20;;;0.20;;
9418;SDS011;4748;50.802;7.132;2023-04-24T07:47:30;0.73;;;0.30;;
9418;SDS011;4748;50.802;7.132;2023-04-24T07:49:56;0.20;;;0.20;;
9418;SDS011;4748;50.802;7.132;2023-04-24T07:52:22;0.30;;;0.30;;
9418;SDS011;4748;50.802;7.132;2023-04-24T07:54:48;0.20;;;0.20;;
9418;SDS011;4748;50.802;7.132;2023-04-24T07:57:14;0.80;;;0.40;;
9418;SDS011;4748;50.802;7.132;2023-04-24T07:59:40;0.40;;;0.40;;
9418;SDS011;4748;50.802;7.132;2023-04-24T08:02:05;0.20;;;0.20;;
9418;SDS011;4748;50.802;7.132;2023-04-24T08:04:31;0.10;;;0.10;;
9418;SDS011;4748;50.802;7.132;2023-04-24T08:06:56;0.10;;;0.10;;
9418;SDS011;4748;50.802;7.132;2023-04-24T08:09:22;0.30;;;0.10;;
9418;SDS011;4748;50.802;7.132;2023-04-24T08:11:47;0.27;;;0.20;;
9418;SDS011;4748;50.802;7.132;2023-04-24T08:14:12;0.17;;;0.17;;
9418;SDS011;4748;50.802;7.132;2023-04-24T08:16:39;0.13;;;0.13;;
9418;SDS011;4748;50.802;7.132;2023-04-24T08:19:05;0.20;;;0.20;;
9418;SDS011;4748;50.802;7.132;2023-04-24T08:21:31;0.10;;;0.10;;
9418;SDS011;4748;50.802;7.132;2023-04-24T08:23:56;0.10;;;0.10;;
9418;SDS011;4748;50.802;7.132;2023-04-24T08:26:22;1.33;;;0.10;;
9418;SDS011;4748;50.802;7.132;2023-04-24T08:28:47;0.10;;;0.10;;
9418;SDS011;4748;50.802;7.132;2023-04-24T08:31:13;0.10;;;0.10;;
9418;SDS011;4748;50.802;7.132;2023-04-24T08:33:38;0.20;;;0.20;;
9418;SDS011;4748;50.802;7.132;2023-04-24T08:36:04;0.20;;;0.20;;
9418;SDS011;4748;50.802;7.132;2023-04-24T08:38:30;0.50;;;0.20;;
9418;SDS011;4748;50.802;7.132;2023-04-24T08:40:56;3.40;;;0.20;;
9418;SDS011;4748;50.802;7.132;2023-04-24T08:43:23;0.20;;;0.10;;
9418;SDS011;4748;50.802;7.132;2023-04-24T08:45:49;0.57;;;0.20;;
9418;SDS011;4748;50.802;7.132;2023-04-24T08:48:15;0.10;;;0.10;;
9418;SDS011;4748;50.802;7.132;2023-04-24T08:50:41;2.00;;;0.53;;
9418;SDS011;4748;50.802;7.132;2023-04-24T08:53:08;0.00;;;0.00;;
9418;SDS011;4748;50.802;7.132;2023-04-24T08:55:33;0.10;;;0.10;;
9418;SDS011;4748;50.802;7.132;2023-04-24T08:57:59;0.50;;;0.40;;
9418;SDS011;4748;50.802;7.132;2023-04-24T09:00:25;0.20;;;0.20;;
9418;SDS011;4748;50.802;7.132;2023-04-24T09:02:53;0.20;;;0.20;;
9418;SDS011;4748;50.802;7.132;2023-04-24T09:05:18;0.10;;;0.10;;
9418;SDS011;4748;50.802;7.132;2023-04-24T09:07:48;0.20;;;0.20;;
9418;SDS011;4748;50.802;7.132;2023-04-24T09:10:17;1.00;;;0.10;;
9418;SDS011;4748;50.802;7.132;2023-04-24T09:12:43;0.10;;;0.10;;
9418;SDS011;4748;50.802;7.132;2023-04-24T09:15:09;0.30;;;0.30;;
9418;SDS011;4748;50.802;7.132;2023-04-24T09:17:35;0.83;;;0.30;;
9418;SDS011;4748;50.802;7.132;2023-04-24T09:20:01;0.20;;;0.20;;
9418;SDS011;4748;50.802;7.132;2023-04-24T09:22:29;0.20;;;0.20;;
9418;SDS011;4748;50.802;7.132;2023-04-24T09:25:02;1.00;;;0.40;;
9418;SDS011;4748;50.802;7.132;2023-04-24T09:27:32;4.33;;;0.53;;
9418;SDS011;4748;50.802;7.132;2023-04-24T09:29:58;1.50;;;0.30;;
9418;SDS011;4748;50.802;7.132;2023-04-24T09:32:24;0.40;;;0.40;;
9418;SDS011;4748;50.802;7.132;2023-04-24T09:35:04;0.40;;;0.40;;
9418;SDS011;4748;50.802;7.132;2023-04-24T09:37:35;0.30;;;0.30;;
9418;SDS011;4748;50.802;7.132;2023-04-24T09:40:11;0.87;;;0.77;;
9418;SDS011;4748;50.802;7.132;2023-04-24T09:42:56;0.30;;;0.30;;
9418;SDS011;4748;50.802;7.132;2023-04-24T09:45:27;0.40;;;0.40;;
9418;SDS011;4748;50.802;7.132;2023-04-24T09:48:02;0.77;;;0.40;;
9418;SDS011;4748;50.802;7.132;2023-04-24T09:50:29;1.03;;;0.67;;
9418;SDS011;4748;50.802;7.132;2023-04-24T09:53:01;0.20;;;0.20;;
9418;SDS011;4748;50.802;7.132;2023-04-24T09:55:27;0.97;;;0.33;;
9418;SDS011;4748;50.802;7.132;2023-04-24T09:57:56;0.33;;;0.33;;
9418;SDS011;4748;50.802;7.132;2023-04-24T10:00:27;2.93;;;0.57;;
9418;SDS011;4748;50.802;7.132;2023-04-24T10:02:55;0.40;;;0.40;;
9418;SDS011;4748;50.802;7.132;2023-04-24T10:05:24;5.63;;;0.40;;
9418;SDS011;4748;50.802;7.132;2023-04-24T10:07:51;1.80;;;0.50;;
9418;SDS011;4748;50.802;7.132;2023-04-24T10:10:22;0.43;;;0.43;;
9418;SDS011;4748;50.802;7.132;2023-04-24T10:12:47;0.40;;;0.40;;
9418;SDS011;4748;50.802;7.132;2023-04-24T10:15:14;1.03;;;0.50;;
9418;SDS011;4748;50.802;7.132;2023-04-24T10:17:41;0.67;;;0.67;;
9418;SDS011;4748;50.802;7.132;2023-04-24T10:20:08;2.00;;;0.50;;
9418;SDS011;4748;50.802;7.132;2023-04-24T10:22:33;0.60;;;0.60;;
9418;SDS011;4748;50.802;7.132;2023-04-24T10:25:00;2.43;;;0.97;;
9418;SDS011;4748;50.802;7.132;2023-04-24T10:27:28;0.57;;;0.57;;
9418;SDS011;4748;50.802;7.132;2023-04-24T10:29:55;0.30;;;0.30;;
9418;SDS011;4748;50.802;7.132;2023-04-24T10:32:21;3.77;;;0.90;;
9418;SDS011;4748;50.802;7.132;2023-04-24T10:34:46;0.40;;;0.40;;
9418;SDS011;4748;50.802;7.132;2023-04-24T10:37:12;2.47;;;0.73;;
9418;SDS011;4748;50.802;7.132;2023-04-24T10:39:39;1.13;;;0.80;;
9418;SDS011;4748;50.802;7.132;2023-04-24T10:42:14;11.97;;;0.40;;
9418;SDS011;4748;50.802;7.132;2023-04-24T10:44:40;0.60;;;0.60;;
9418;SDS011;4748;50.802;7.132;2023-04-24T10:47:06;3.97;;;0.87;;
9418;SDS011;4748;50.802;7.132;2023-04-24T10:49:38;0.50;;;0.50;;
9418;SDS011;4748;50.802;7.132;2023-04-24T10:52:03;0.80;;;0.80;;
9418;SDS011;4748;50.802;7.132;2023-04-24T10:54:35;0.70;;;0.70;;
9418;SDS011;4748;50.802;7.132;2023-04-24T11:00:30;1.13;;;0.70;;
9418;SDS011;4748;50.802;7.132;2023-04-24T11:02:46;3.27;;;1.07;;
9418;SDS011;4748;50.802;7.132;2023-04-24T11:05:18;1.20;;;0.70;;
9418;SDS011;4748;50.802;7.132;2023-04-24T11:10:46;0.70;;;0.70;;
9418;SDS011;4748;50.802;7.132;2023-04-24T11:13:22;0.87;;;0.37;;
9418;SDS011;4748;50.802;7.132;2023-04-24T11:19:01;1.60;;;0.90;;
9418;SDS011;4748;50.802;7.132;2023-04-24T11:21:40;1.07;;;0.90;;
9418;SDS011;4748;50.802;7.132;2023-04-24T11:24:54;4.43;;;1.30;;
9418;SDS011;4748;50.802;7.132;2023-04-24T11:26:57;2.53;;;1.07;;
9418;SDS011;4748;50.802;7.132;2023-04-24T11:37:32;1.37;;;1.27;;
9418;SDS011;4748;50.802;7.132;2023-04-24T11:40:02;3.50;;;0.83;;
9418;SDS011;4748;50.802;7.132;2023-04-24T11:42:33;1.40;;;1.30;;
9418;SDS011;4748;50.802;7.132;2023-04-24T11:45:12;7.70;;;0.87;;
9418;SDS011;4748;50.802;7.132;2023-04-24T11:47:42;1.90;;;1.40;;
9418;SDS011;4748;50.802;7.132;2023-04-24T11:50:09;1.87;;;1.10;;
9418;SDS011;4748;50.802;7.132;2023-04-24T11:52:37;1.00;;;0.93;;
9418;SDS011;4748;50.802;7.132;2023-04-24T11:55:05;1.03;;;1.03;;
9418;SDS011;4748;50.802;7.132;2023-04-24T11:57:32;0.50;;;0.50;;
9418;SDS011;4748;50.802;7.132;2023-04-24T12:00:02;1.13;;;0.87;;
9418;SDS011;4748;50.802;7.132;2023-04-24T12:02:30;0.83;;;0.83;;
9418;SDS011;4748;50.802;7.132;2023-04-24T12:04:56;6.87;;;1.07;;
9418;SDS011;4748;50.802;7.132;2023-04-24T12:07:22;3.30;;;0.93;;
9418;SDS011;4748;50.802;7.132;2023-04-24T12:09:49;0.70;;;0.63;;
9418;SDS011;4748;50.802;7.132;2023-04-24T12:12:20;3.27;;;1.80;;
9418;SDS011;4748;50.802;7.132;2023-04-24T12:14:57;2.13;;;0.80;;
9418;SDS011;4748;50.802;7.132;2023-04-24T12:17:24;3.63;;;1.10;;
9418;SDS011;4748;50.802;7.132;2023-04-24T12:19:51;15.23;;;2.20;;
9418;SDS011;4748;50.802;7.132;2023-04-24T12:22:16;2.40;;;1.37;;
9418;SDS011;4748;50.802;7.132;2023-04-24T12:25:03;3.50;;;0.70;;
9418;SDS011;4748;50.802;7.132;2023-04-24T12:27:33;1.53;;;1.37;;
9418;SDS011;4748;50.802;7.132;2023-04-24T12:30:00;6.13;;;1.20;;
9418;SDS011;4748;50.802;7.132;2023-04-24T12:32:26;2.20;;;1.57;;
9418;SDS011;4748;50.802;7.132;2023-04-24T12:34:52;1.43;;;1.30;;
9418;SDS011;4748;50.802;7.132;2023-04-24T12:37:18;1.57;;;1.30;;
9418;SDS011;4748;50.802;7.132;2023-04-24T12:39:46;5.60;;;1.40;;
9418;SDS011;4748;50.802;7.132;2023-04-24T12:42:30;2.93;;;1.20;;
9418;SDS011;4748;50.802;7.132;2023-04-24T12:44:57;8.43;;;1.67;;
9418;SDS011;4748;50.802;7.132;2023-04-24T12:47:28;1.93;;;1.77;;
9418;SDS011;4748;50.802;7.132;2023-04-24T12:49:54;1.27;;;1.27;;
9418;SDS011;4748;50.802;7.132;2023-04-24T12:52:20;6.33;;;1.77;;
9418;SDS011;4748;50.802;7.132;2023-04-24T12:54:46;1.93;;;1.63;;
9418;SDS011;4748;50.802;7.132;2023-04-24T12:57:12;7.10;;;0.73;;
9418;SDS011;4748;50.802;7.132;2023-04-24T12:59:37;3.40;;;1.33;;
9418;SDS011;4748;50.802;7.132;2023-04-24T13:02:04;4.63;;;1.37;;
9418;SDS011;4748;50.802;7.132;2023-04-24T13:04:29;5.23;;;2.13;;
9418;SDS011;4748;50.802;7.132;2023-04-24T13:06:55;1.20;;;1.20;;
9418;SDS011;4748;50.802;7.132;2023-04-24T13:09:20;1.47;;;0.70;;
9418;SDS011;4748;50.802;7.132;2023-04-24T13:11:45;3.80;;;1.33;;
9418;SDS011;4748;50.802;7.132;2023-04-24T13:14:11;1.90;;;1.77;;
9418;SDS011;4748;50.802;7.132;2023-04-24T13:16:36;0.30;;;0.30;;
9418;SDS011;4748;50.802;7.132;2023-04-24T13:19:01;4.23;;;1.63;;
9418;SDS011;4748;50.802;7.132;2023-04-24T13:21:27;1.30;;;0.90;;
9418;SDS011;4748;50.802;7.132;2023-04-24T13:23:52;3.07;;;1.17;;
9418;SDS011;4748;50.802;7.132;2023-04-24T13:26:18;4.47;;;1.50;;
9418;SDS011;4748;50.802;7.132;2023-04-24T13:28:43;1.97;;;1.00;;
9418;SDS011;4748;50.802;7.132;2023-04-24T13:31:09;3.73;;;1.83;;
9418;SDS011;4748;50.802;7.132;2023-04-24T13:33:34;2.63;;;1.23;;
9418;SDS011;4748;50.802;7.132;2023-04-24T13:36:00;1.63;;;1.20;;
9418;SDS011;4748;50.802;7.132;2023-04-24T13:38:25;3.30;;;1.10;;
9418;SDS011;4748;50.802;7.132;2023-04-24T13:40:50;3.33;;;1.10;;
9418;SDS011;4748;50.802;7.132;2023-04-24T13:43:16;3.70;;;1.40;;
9418;SDS011;4748;50.802;7.132;2023-04-24T13:45:41;0.90;;;0.83;;
9418;SDS011;4748;50.802;7.132;2023-04-24T13:48:06;3.20;;;0.80;;
9418;SDS011;4748;50.802;7.132;2023-04-24T13:50:33;6.17;;;1.00;;
9418;SDS011;4748;50.802;7.132;2023-04-24T13:52:59;1.30;;;1.20;;
9418;SDS011;4748;50.802;7.132;2023-04-24T13:55:26;0.60;;;0.60;;
9418;SDS011;4748;50.802;7.132;2023-04-24T13:57:51;7.10;;;1.37;;
9418;SDS011;4748;50.802;7.132;2023-04-24T14:00:19;0.70;;;0.70;;
9418;SDS011;4748;50.802;7.132;2023-04-24T14:02:45;2.53;;;1.00;;
9418;SDS011;4748;50.802;7.132;2023-04-24T14:05:12;2.60;;;1.33;;
9418;SDS011;4748;50.802;7.132;2023-04-24T14:07:39;2.07;;;1.03;;
9418;SDS011;4748;50.802;7.132;2023-04-24T14:10:04;4.53;;;1.40;;
9418;SDS011;4748;50.802;7.132;2023-04-24T14:12:30;4.33;;;1.13;;
9418;SDS011;4748;50.802;7.132;2023-04-24T14:14:56;2.70;;;0.97;;
9418;SDS011;4748;50.802;7.132;2023-04-24T14:17:21;1.23;;;0.90;;
9418;SDS011;4748;50.802;7.132;2023-04-24T14:19:46;2.03;;;0.70;;
9418;SDS011;4748;50.802;7.132;2023-04-24T14:22:12;3.90;;;1.03;;
9418;SDS011;4748;50.802;7.132;2023-04-24T14:24:37;2.30;;;1.20;;
9418;SDS011;4748;50.802;7.132;2023-04-24T14:27:03;6.23;;;1.30;;
9418;SDS011;4748;50.802;7.132;2023-04-24T14:29:28;2.60;;;1.50;;
9418;SDS011;4748;50.802;7.132;2023-04-24T14:31:53;1.70;;;0.90;;
9418;SDS011;4748;50.802;7.132;2023-04-24T14:34:19;1.33;;;1.20;;
9418;SDS011;4748;50.802;7.132;2023-04-24T14:36:44;0.70;;;0.70;;
9418;SDS011;4748;50.802;7.132;2023-04-24T14:39:10;4.03;;;1.10;;
9418;SDS011;4748;50.802;7.132;2023-04-24T14:41:35;1.90;;;1.17;;
9418;SDS011;4748;50.802;7.132;2023-04-24T14:44:02;0.70;;;0.70;;
9418;SDS011;4748;50.802;7.132;2023-04-24T14:46:28;1.40;;;1.40;;
9418;SDS011;4748;50.802;7.132;2023-04-24T14:48:55;3.23;;;1.43;;
9418;SDS011;4748;50.802;7.132;2023-04-24T14:51:23;1.70;;;1.30;;
9418;SDS011;4748;50.802;7.132;2023-04-24T14:53:49;5.87;;;0.90;;
9418;SDS011;4748;50.802;7.132;2023-04-24T14:56:14;4.50;;;1.67;;
9418;SDS011;4748;50.802;7.132;2023-04-24T14:58:40;1.33;;;0.63;;
9418;SDS011;4748;50.802;7.132;2023-04-24T15:01:05;8.77;;;1.03;;
9418;SDS011;4748;50.802;7.132;2023-04-24T15:03:31;4.77;;;1.00;;
9418;SDS011;4748;50.802;7.132;2023-04-24T15:05:56;2.07;;;1.07;;
9418;SDS011;4748;50.802;7.132;2023-04-24T15:08:21;1.43;;;1.13;;
9418;SDS011;4748;50.802;7.132;2023-04-24T15:10:47;2.97;;;1.37;;
9418;SDS011;4748;50.802;7.132;2023-04-24T15:13:13;0.80;;;0.80;;
9418;SDS011;4748;50.802;7.132;2023-04-24T15:15:38;0.70;;;0.70;;
9418;SDS011;4748;50.802;7.132;2023-04-24T15:18:04;3.80;;;1.20;;
9418;SDS011;4748;50.802;7.132;2023-04-24T15:20:30;2.53;;;0.67;;
9418;SDS011;4748;50.802;7.132;2023-04-24T15:22:56;0.90;;;0.90;;
9418;SDS011;4748;50.802;7.132;2023-04-24T15:25:21;3.93;;;0.83;;
9418;SDS011;4748;50.802;7.132;2023-04-24T15:27:47;1.17;;;0.80;;